sensor_id;sensor_type;location;lat;lon;timestamp;temperature;humidity
62259;DHT22;48241;48.824;10.102;2023-03-01T00:01:31;-0.10;88.60
62259;DHT22;48241;48.824;10.102;2023-03-01T00:03:57;-0.10;89.10
62259;DHT22;48241;48.824;10.102;2023-03-01T00:06:24;0.00;88.40
62259;DHT22;48241;48.824;10.102;2023-03-01T00:08:50;-0.10;88.30
62259;DHT22;48241;48.824;10.102;2023-03-01T00:11:20;-0.20;89.00
62259;DHT22;48241;48.824;10.102;2023-03-01T00:13:47;-0.30;89.30
62259;DHT22;48241;48.824;10.102;2023-03-01T00:16:15;-0.70;90.60
62259;DHT22;48241;48.824;10.102;2023-03-01T00:18:41;-0.40;90.70
62259;DHT22;48241;48.824;10.102;2023-03-01T00:21:07;-0.10;90.60
62259;DHT22;48241;48.824;10.102;2023-03-01T00:23:37;-0.10;90.60
62259;DHT22;48241;48.824;10.102;2023-03-01T00:26:06;0.00;90.40
62259;DHT22;48241;48.824;10.102;2023-03-01T00:28:32;0.20;90.00
62259;DHT22;48241;48.824;10.102;2023-03-01T00:31:25;0.50;89.30
62259;DHT22;48241;48.824;10.102;2023-03-01T00:34:00;0.60;88.90
62259;DHT22;48241;48.824;10.102;2023-03-01T00:36:28;0.90;89.10
62259;DHT22;48241;48.824;10.102;2023-03-01T00:38:54;0.90;88.30
62259;DHT22;48241;48.824;10.102;2023-03-01T00:41:21;1.20;87.20
62259;DHT22;48241;48.824;10.102;2023-03-01T00:43:49;1.20;86.80
62259;DHT22;48241;48.824;10.102;2023-03-01T00:46:17;1.30;87.40
62259;DHT22;48241;48.824;10.102;2023-03-01T00:48:43;1.50;86.40
62259;DHT22;48241;48.824;10.102;2023-03-01T00:51:15;1.60;86.20
62259;DHT22;48241;48.824;10.102;2023-03-01T00:53:41;1.80;86.60
62259;DHT22;48241;48.824;10.102;2023-03-01T00:56:08;1.80;85.30
62259;DHT22;48241;48.824;10.102;2023-03-01T00:58:35;1.40;87.90
62259;DHT22;48241;48.824;10.102;2023-03-01T01:01:06;1.70;87.10
62259;DHT22;48241;48.824;10.102;2023-03-01T01:03:32;1.90;86.00
62259;DHT22;48241;48.824;10.102;2023-03-01T01:05:58;1.90;85.60
62259;DHT22;48241;48.824;10.102;2023-03-01T01:08:23;2.10;84.90
62259;DHT22;48241;48.824;10.102;2023-03-01T01:10:49;2.10;84.40
62259;DHT22;48241;48.824;10.102;2023-03-01T01:13:14;2.20;84.20
62259;DHT22;48241;48.824;10.102;2023-03-01T01:15:40;2.30;83.50
62259;DHT22;48241;48.824;10.102;2023-03-01T01:18:06;2.30;82.40
62259;DHT22;48241;48.824;10.102;2023-03-01T01:20:31;2.40;81.80
62259;DHT22;48241;48.824;10.102;2023-03-01T01:22:57;2.30;81.70
62259;DHT22;48241;48.824;10.102;2023-03-01T01:25:23;2.40;81.20
62259;DHT22;48241;48.824;10.102;2023-03-01T01:27:50;2.10;82.40
62259;DHT22;48241;48.824;10.102;2023-03-01T01:30:16;2.00;79.80
62259;DHT22;48241;48.824;10.102;2023-03-01T01:32:41;2.00;80.70
62259;DHT22;48241;48.824;10.102;2023-03-01T01:35:07;1.80;80.60
62259;DHT22;48241;48.824;10.102;2023-03-01T01:37:33;1.30;82.90
62259;DHT22;48241;48.824;10.102;2023-03-01T01:39:59;1.10;83.50
62259;DHT22;48241;48.824;10.102;2023-03-01T01:42:25;1.00;84.00
62259;DHT22;48241;48.824;10.102;2023-03-01T01:45:27;1.10;84.20
62259;DHT22;48241;48.824;10.102;2023-03-01T01:47:57;0.70;85.40
62259;DHT22;48241;48.824;10.102;2023-03-01T01:50:24;1.00;85.20
62259;DHT22;48241;48.824;10.102;2023-03-01T01:52:51;1.10;83.80
62259;DHT22;48241;48.824;10.102;2023-03-01T01:55:21;1.00;84.20
62259;DHT22;48241;48.824;10.102;2023-03-01T01:58:01;1.00;84.00
62259;DHT22;48241;48.824;10.102;2023-03-01T02:00:29;0.60;86.70
62259;DHT22;48241;48.824;10.102;2023-03-01T02:03:04;0.70;86.30
62259;DHT22;48241;48.824;10.102;2023-03-01T02:08:35;1.20;83.50
62259;DHT22;48241;48.824;10.102;2023-03-01T02:11:02;1.10;83.70
62259;DHT22;48241;48.824;10.102;2023-03-01T02:13:30;1.20;83.90
62259;DHT22;48241;48.824;10.102;2023-03-01T02:15:56;0.90;84.80
62259;DHT22;48241;48.824;10.102;2023-03-01T02:18:23;1.00;84.10
62259;DHT22;48241;48.824;10.102;2023-03-01T02:21:05;0.80;85.20
62259;DHT22;48241;48.824;10.102;2023-03-01T02:23:33;1.00;84.30
62259;DHT22;48241;48.824;10.102;2023-03-01T02:28:32;1.00;85.00
62259;DHT22;48241;48.824;10.102;2023-03-01T02:30:58;1.00;85.40
62259;DHT22;48241;48.824;10.102;2023-03-01T02:33:44;1.00;83.90
62259;DHT22;48241;48.824;10.102;2023-03-01T02:36:14;1.00;85.50
62259;DHT22;48241;48.824;10.102;2023-03-01T02:38:42;1.20;84.00
62259;DHT22;48241;48.824;10.102;2023-03-01T02:41:08;1.40;84.50
62259;DHT22;48241;48.824;10.102;2023-03-01T02:43:36;1.50;82.30
62259;DHT22;48241;48.824;10.102;2023-03-01T02:46:08;1.60;81.70
62259;DHT22;48241;48.824;10.102;2023-03-01T02:48:48;1.30;82.90
62259;DHT22;48241;48.824;10.102;2023-03-01T02:51:20;1.20;83.00
62259;DHT22;48241;48.824;10.102;2023-03-01T02:54:28;1.10;83.80
62259;DHT22;48241;48.824;10.102;2023-03-01T02:56:55;1.10;84.30
62259;DHT22;48241;48.824;10.102;2023-03-01T02:59:25;1.20;83.50
62259;DHT22;48241;48.824;10.102;2023-03-01T03:01:53;1.20;83.30
62259;DHT22;48241;48.824;10.102;2023-03-01T03:04:19;1.40;83.30
62259;DHT22;48241;48.824;10.102;2023-03-01T03:06:47;1.30;83.60
62259;DHT22;48241;48.824;10.102;2023-03-01T03:09:14;1.60;82.70
62259;DHT22;48241;48.824;10.102;2023-03-01T03:11:40;1.60;82.20
62259;DHT22;48241;48.824;10.102;2023-03-01T03:14:07;1.80;81.30
62259;DHT22;48241;48.824;10.102;2023-03-01T03:16:40;2.00;81.00
62259;DHT22;48241;48.824;10.102;2023-03-01T03:19:06;2.00;81.10
62259;DHT22;48241;48.824;10.102;2023-03-01T03:21:32;2.00;80.90
62259;DHT22;48241;48.824;10.102;2023-03-01T03:23:58;2.10;80.60
62259;DHT22;48241;48.824;10.102;2023-03-01T03:26:24;2.10;80.10
62259;DHT22;48241;48.824;10.102;2023-03-01T03:28:49;2.20;79.90
62259;DHT22;48241;48.824;10.102;2023-03-01T03:31:15;2.00;80.10
62259;DHT22;48241;48.824;10.102;2023-03-01T03:33:40;2.20;81.20
62259;DHT22;48241;48.824;10.102;2023-03-01T03:36:06;2.50;79.90
62259;DHT22;48241;48.824;10.102;2023-03-01T03:38:32;2.30;80.20
62259;DHT22;48241;48.824;10.102;2023-03-01T03:41:04;2.50;80.00
62259;DHT22;48241;48.824;10.102;2023-03-01T03:43:32;2.40;79.00
62259;DHT22;48241;48.824;10.102;2023-03-01T03:45:58;2.40;79.60
62259;DHT22;48241;48.824;10.102;2023-03-01T03:48:24;2.60;79.70
62259;DHT22;48241;48.824;10.102;2023-03-01T03:50:52;2.50;79.60
62259;DHT22;48241;48.824;10.102;2023-03-01T03:53:19;2.50;79.90
62259;DHT22;48241;48.824;10.102;2023-03-01T03:55:45;2.60;78.80
62259;DHT22;48241;48.824;10.102;2023-03-01T03:58:14;2.20;78.20
62259;DHT22;48241;48.824;10.102;2023-03-01T04:00:43;2.50;79.00
62259;DHT22;48241;48.824;10.102;2023-03-01T04:03:10;2.70;78.10
62259;DHT22;48241;48.824;10.102;2023-03-01T04:05:36;2.60;77.80
62259;DHT22;48241;48.824;10.102;2023-03-01T04:08:02;2.70;78.60
62259;DHT22;48241;48.824;10.102;2023-03-01T04:10:30;2.70;79.00
62259;DHT22;48241;48.824;10.102;2023-03-01T04:12:56;2.80;79.50
62259;DHT22;48241;48.824;10.102;2023-03-01T04:15:22;2.80;79.20
62259;DHT22;48241;48.824;10.102;2023-03-01T04:17:50;2.80;78.40
62259;DHT22;48241;48.824;10.102;2023-03-01T04:20:19;2.90;78.20
62259;DHT22;48241;48.824;10.102;2023-03-01T04:23:10;2.60;79.70
62259;DHT22;48241;48.824;10.102;2023-03-01T04:25:58;2.90;78.80
62259;DHT22;48241;48.824;10.102;2023-03-01T04:28:36;2.90;78.90
62259;DHT22;48241;48.824;10.102;2023-03-01T04:31:06;2.70;78.30
62259;DHT22;48241;48.824;10.102;2023-03-01T04:33:48;2.70;79.20
62259;DHT22;48241;48.824;10.102;2023-03-01T04:36:17;2.70;78.90
62259;DHT22;48241;48.824;10.102;2023-03-01T04:38:43;2.80;79.00
62259;DHT22;48241;48.824;10.102;2023-03-01T04:41:13;2.70;78.10
62259;DHT22;48241;48.824;10.102;2023-03-01T04:43:39;2.80;77.80
62259;DHT22;48241;48.824;10.102;2023-03-01T04:46:07;3.00;76.50
62259;DHT22;48241;48.824;10.102;2023-03-01T04:48:35;3.10;75.70
62259;DHT22;48241;48.824;10.102;2023-03-01T04:51:01;3.10;76.00
62259;DHT22;48241;48.824;10.102;2023-03-01T04:53:28;2.90;76.50
62259;DHT22;48241;48.824;10.102;2023-03-01T04:55:54;3.00;76.70
62259;DHT22;48241;48.824;10.102;2023-03-01T04:58:24;2.70;78.40
62259;DHT22;48241;48.824;10.102;2023-03-01T05:00:50;3.00;78.10
62259;DHT22;48241;48.824;10.102;2023-03-01T05:03:15;3.00;77.80
62259;DHT22;48241;48.824;10.102;2023-03-01T05:05:44;2.80;77.60
62259;DHT22;48241;48.824;10.102;2023-03-01T05:08:10;2.80;77.10
62259;DHT22;48241;48.824;10.102;2023-03-01T05:10:44;2.50;76.90
62259;DHT22;48241;48.824;10.102;2023-03-01T05:13:12;2.30;77.90
62259;DHT22;48241;48.824;10.102;2023-03-01T05:15:39;2.60;76.90
62259;DHT22;48241;48.824;10.102;2023-03-01T05:18:05;2.80;76.10
62259;DHT22;48241;48.824;10.102;2023-03-01T05:20:37;2.80;76.10
62259;DHT22;48241;48.824;10.102;2023-03-01T05:23:03;2.90;76.00
62259;DHT22;48241;48.824;10.102;2023-03-01T05:25:31;2.70;76.40
62259;DHT22;48241;48.824;10.102;2023-03-01T05:28:01;2.60;77.70
62259;DHT22;48241;48.824;10.102;2023-03-01T05:30:30;2.30;77.70
62259;DHT22;48241;48.824;10.102;2023-03-01T05:32:56;2.40;77.90
62259;DHT22;48241;48.824;10.102;2023-03-01T05:35:22;2.50;77.80
62259;DHT22;48241;48.824;10.102;2023-03-01T05:37:49;2.40;78.40
62259;DHT22;48241;48.824;10.102;2023-03-01T05:40:19;2.40;78.20
62259;DHT22;48241;48.824;10.102;2023-03-01T05:42:48;2.00;78.30
62259;DHT22;48241;48.824;10.102;2023-03-01T05:45:15;1.70;79.20
62259;DHT22;48241;48.824;10.102;2023-03-01T05:47:42;1.50;80.60
62259;DHT22;48241;48.824;10.102;2023-03-01T05:50:16;1.40;81.20
62259;DHT22;48241;48.824;10.102;2023-03-01T05:52:51;1.20;81.20
62259;DHT22;48241;48.824;10.102;2023-03-01T05:55:18;1.00;82.90
62259;DHT22;48241;48.824;10.102;2023-03-01T05:57:44;1.00;82.80
62259;DHT22;48241;48.824;10.102;2023-03-01T06:00:11;0.80;83.40
62259;DHT22;48241;48.824;10.102;2023-03-01T06:02:38;0.80;83.50
62259;DHT22;48241;48.824;10.102;2023-03-01T06:05:05;0.50;84.80
62259;DHT22;48241;48.824;10.102;2023-03-01T06:07:32;0.40;85.10
62259;DHT22;48241;48.824;10.102;2023-03-01T06:09:57;0.40;85.50
62259;DHT22;48241;48.824;10.102;2023-03-01T06:12:23;0.40;85.20
62259;DHT22;48241;48.824;10.102;2023-03-01T06:14:48;0.50;85.20
62259;DHT22;48241;48.824;10.102;2023-03-01T06:17:14;0.40;85.50
62259;DHT22;48241;48.824;10.102;2023-03-01T06:19:39;0.20;86.80
62259;DHT22;48241;48.824;10.102;2023-03-01T06:22:05;0.20;86.70
62259;DHT22;48241;48.824;10.102;2023-03-01T06:24:30;0.20;86.90
62259;DHT22;48241;48.824;10.102;2023-03-01T06:26:56;0.20;86.30
62259;DHT22;48241;48.824;10.102;2023-03-01T06:29:22;0.30;86.60
62259;DHT22;48241;48.824;10.102;2023-03-01T06:31:48;0.40;86.50
62259;DHT22;48241;48.824;10.102;2023-03-01T06:34:14;0.30;86.50
62259;DHT22;48241;48.824;10.102;2023-03-01T06:36:40;0.30;86.60
62259;DHT22;48241;48.824;10.102;2023-03-01T06:39:06;0.40;86.00
62259;DHT22;48241;48.824;10.102;2023-03-01T06:41:32;0.20;86.90
62259;DHT22;48241;48.824;10.102;2023-03-01T06:43:58;0.30;86.50
62259;DHT22;48241;48.824;10.102;2023-03-01T06:46:24;0.50;85.70
62259;DHT22;48241;48.824;10.102;2023-03-01T06:48:50;0.60;85.30
62259;DHT22;48241;48.824;10.102;2023-03-01T06:51:16;0.50;85.20
62259;DHT22;48241;48.824;10.102;2023-03-01T06:53:41;0.20;86.40
62259;DHT22;48241;48.824;10.102;2023-03-01T06:56:07;0.30;87.10
62259;DHT22;48241;48.824;10.102;2023-03-01T06:58:32;0.30;86.50
62259;DHT22;48241;48.824;10.102;2023-03-01T07:00:58;0.40;86.80
62259;DHT22;48241;48.824;10.102;2023-03-01T07:03:23;0.60;85.70
62259;DHT22;48241;48.824;10.102;2023-03-01T07:05:49;0.90;84.60
62259;DHT22;48241;48.824;10.102;2023-03-01T07:08:17;1.00;82.90
62259;DHT22;48241;48.824;10.102;2023-03-01T07:10:43;0.90;83.60
62259;DHT22;48241;48.824;10.102;2023-03-01T07:13:11;1.00;83.90
62259;DHT22;48241;48.824;10.102;2023-03-01T07:15:37;1.10;83.00
62259;DHT22;48241;48.824;10.102;2023-03-01T07:18:05;1.00;82.20
62259;DHT22;48241;48.824;10.102;2023-03-01T07:20:31;1.10;82.90
62259;DHT22;48241;48.824;10.102;2023-03-01T07:22:56;1.20;82.90
62259;DHT22;48241;48.824;10.102;2023-03-01T07:25:24;1.20;81.70
62259;DHT22;48241;48.824;10.102;2023-03-01T07:27:51;1.30;82.60
62259;DHT22;48241;48.824;10.102;2023-03-01T07:30:22;1.20;82.90
62259;DHT22;48241;48.824;10.102;2023-03-01T07:32:56;1.40;82.30
62259;DHT22;48241;48.824;10.102;2023-03-01T07:35:27;1.50;81.60
62259;DHT22;48241;48.824;10.102;2023-03-01T07:37:53;1.30;81.70
62259;DHT22;48241;48.824;10.102;2023-03-01T07:40:19;1.60;81.80
62259;DHT22;48241;48.824;10.102;2023-03-01T07:42:45;1.60;80.70
62259;DHT22;48241;48.824;10.102;2023-03-01T07:45:10;1.70;79.10
62259;DHT22;48241;48.824;10.102;2023-03-01T07:47:36;1.80;78.70
62259;DHT22;48241;48.824;10.102;2023-03-01T07:50:03;1.90;78.20
62259;DHT22;48241;48.824;10.102;2023-03-01T07:52:29;2.00;78.70
62259;DHT22;48241;48.824;10.102;2023-03-01T07:54:56;2.10;77.30
62259;DHT22;48241;48.824;10.102;2023-03-01T07:57:24;1.80;77.20
62259;DHT22;48241;48.824;10.102;2023-03-01T07:59:49;1.80;77.60
62259;DHT22;48241;48.824;10.102;2023-03-01T08:02:15;1.60;78.10
62259;DHT22;48241;48.824;10.102;2023-03-01T08:04:41;1.80;78.40
62259;DHT22;48241;48.824;10.102;2023-03-01T08:07:07;1.70;77.80
62259;DHT22;48241;48.824;10.102;2023-03-01T08:09:36;1.90;77.00
62259;DHT22;48241;48.824;10.102;2023-03-01T08:12:03;2.00;77.40
62259;DHT22;48241;48.824;10.102;2023-03-01T08:14:30;2.40;76.00
62259;DHT22;48241;48.824;10.102;2023-03-01T08:16:59;2.50;75.20
62259;DHT22;48241;48.824;10.102;2023-03-01T08:19:25;2.60;75.10
62259;DHT22;48241;48.824;10.102;2023-03-01T08:21:50;2.50;75.10
62259;DHT22;48241;48.824;10.102;2023-03-01T08:24:16;2.70;74.30
62259;DHT22;48241;48.824;10.102;2023-03-01T08:26:44;3.00;73.70
62259;DHT22;48241;48.824;10.102;2023-03-01T08:29:10;3.60;71.90
62259;DHT22;48241;48.824;10.102;2023-03-01T08:31:39;3.90;69.00
62259;DHT22;48241;48.824;10.102;2023-03-01T08:34:11;4.20;68.40
62259;DHT22;48241;48.824;10.102;2023-03-01T08:36:40;4.40;67.70
62259;DHT22;48241;48.824;10.102;2023-03-01T08:39:07;4.80;66.60
62259;DHT22;48241;48.824;10.102;2023-03-01T08:41:33;5.20;64.60
62259;DHT22;48241;48.824;10.102;2023-03-01T08:43:59;5.40;63.50
62259;DHT22;48241;48.824;10.102;2023-03-01T08:46:30;5.60;62.60
62259;DHT22;48241;48.824;10.102;2023-03-01T08:48:56;5.70;63.20
62259;DHT22;48241;48.824;10.102;2023-03-01T08:51:22;6.00;62.00
62259;DHT22;48241;48.824;10.102;2023-03-01T08:53:48;7.10;59.90
62259;DHT22;48241;48.824;10.102;2023-03-01T08:56:14;7.70;56.50
62259;DHT22;48241;48.824;10.102;2023-03-01T08:58:40;7.10;57.50
62259;DHT22;48241;48.824;10.102;2023-03-01T09:01:13;7.10;58.40
62259;DHT22;48241;48.824;10.102;2023-03-01T09:03:40;6.90;58.50
62259;DHT22;48241;48.824;10.102;2023-03-01T09:06:06;6.80;58.50
62259;DHT22;48241;48.824;10.102;2023-03-01T09:08:41;6.80;57.40
62259;DHT22;48241;48.824;10.102;2023-03-01T09:11:08;6.50;58.20
62259;DHT22;48241;48.824;10.102;2023-03-01T09:13:34;6.50;58.70
62259;DHT22;48241;48.824;10.102;2023-03-01T09:16:01;6.50;57.70
62259;DHT22;48241;48.824;10.102;2023-03-01T09:18:28;6.00;59.20
62259;DHT22;48241;48.824;10.102;2023-03-01T09:21:01;5.80;60.40
62259;DHT22;48241;48.824;10.102;2023-03-01T09:23:27;5.80;61.00
62259;DHT22;48241;48.824;10.102;2023-03-01T09:25:53;5.80;60.90
62259;DHT22;48241;48.824;10.102;2023-03-01T09:28:18;5.80;60.50
62259;DHT22;48241;48.824;10.102;2023-03-01T09:30:44;6.60;59.90
62259;DHT22;48241;48.824;10.102;2023-03-01T09:33:09;6.60;58.80
62259;DHT22;48241;48.824;10.102;2023-03-01T09:35:40;6.90;58.30
62259;DHT22;48241;48.824;10.102;2023-03-01T09:38:11;7.60;56.40
62259;DHT22;48241;48.824;10.102;2023-03-01T09:40:42;7.90;55.70
62259;DHT22;48241;48.824;10.102;2023-03-01T09:43:25;7.10;56.20
62259;DHT22;48241;48.824;10.102;2023-03-01T09:45:58;7.30;57.00
62259;DHT22;48241;48.824;10.102;2023-03-01T09:48:26;7.80;54.80
62259;DHT22;48241;48.824;10.102;2023-03-01T09:50:51;8.40;55.00
62259;DHT22;48241;48.824;10.102;2023-03-01T09:53:24;8.00;54.10
62259;DHT22;48241;48.824;10.102;2023-03-01T09:58:47;7.30;56.10
62259;DHT22;48241;48.824;10.102;2023-03-01T10:01:37;8.00;55.30
62259;DHT22;48241;48.824;10.102;2023-03-01T10:07:26;8.00;54.10
62259;DHT22;48241;48.824;10.102;2023-03-01T10:09:52;7.10;56.40
62259;DHT22;48241;48.824;10.102;2023-03-01T10:12:22;6.60;57.80
62259;DHT22;48241;48.824;10.102;2023-03-01T10:20:23;5.70;60.40
62259;DHT22;48241;48.824;10.102;2023-03-01T10:22:49;5.70;61.10
62259;DHT22;48241;48.824;10.102;2023-03-01T10:25:44;5.50;62.40
62259;DHT22;48241;48.824;10.102;2023-03-01T10:28:20;5.50;61.90
62259;DHT22;48241;48.824;10.102;2023-03-01T10:30:48;5.40;62.30
62259;DHT22;48241;48.824;10.102;2023-03-01T10:33:19;5.60;62.20
62259;DHT22;48241;48.824;10.102;2023-03-01T10:35:46;5.40;62.80
62259;DHT22;48241;48.824;10.102;2023-03-01T10:38:14;5.10;62.80
62259;DHT22;48241;48.824;10.102;2023-03-01T10:40:52;4.90;64.80
62259;DHT22;48241;48.824;10.102;2023-03-01T10:43:19;4.80;64.40
62259;DHT22;48241;48.824;10.102;2023-03-01T10:45:45;4.70;65.60
62259;DHT22;48241;48.824;10.102;2023-03-01T10:48:12;4.70;65.50
62259;DHT22;48241;48.824;10.102;2023-03-01T10:50:45;4.90;64.60
62259;DHT22;48241;48.824;10.102;2023-03-01T10:56:07;4.90;64.70
62259;DHT22;48241;48.824;10.102;2023-03-01T10:58:34;4.80;65.50
62259;DHT22;48241;48.824;10.102;2023-03-01T11:01:26;5.00;64.10
62259;DHT22;48241;48.824;10.102;2023-03-01T11:06:33;5.10;63.40
62259;DHT22;48241;48.824;10.102;2023-03-01T11:11:38;5.30;62.90
62259;DHT22;48241;48.824;10.102;2023-03-01T11:14:26;5.60;62.40
62259;DHT22;48241;48.824;10.102;2023-03-01T11:17:02;5.50;62.60
62259;DHT22;48241;48.824;10.102;2023-03-01T11:19:27;5.20;63.50
62259;DHT22;48241;48.824;10.102;2023-03-01T11:22:03;5.60;62.90
62259;DHT22;48241;48.824;10.102;2023-03-01T11:24:39;5.80;61.90
62259;DHT22;48241;48.824;10.102;2023-03-01T11:27:21;5.80;61.60
62259;DHT22;48241;48.824;10.102;2023-03-01T11:30:38;5.60;62.80
62259;DHT22;48241;48.824;10.102;2023-03-01T11:33:13;5.70;62.00
62259;DHT22;48241;48.824;10.102;2023-03-01T11:35:56;5.50;61.50
62259;DHT22;48241;48.824;10.102;2023-03-01T11:38:25;5.80;62.00
62259;DHT22;48241;48.824;10.102;2023-03-01T11:41:14;5.90;62.10
62259;DHT22;48241;48.824;10.102;2023-03-01T11:57:00;6.40;60.00
62259;DHT22;48241;48.824;10.102;2023-03-01T11:59:59;6.10;61.20
62259;DHT22;48241;48.824;10.102;2023-03-01T12:02:51;6.30;61.20
62259;DHT22;48241;48.824;10.102;2023-03-01T12:08:37;6.50;60.30
62259;DHT22;48241;48.824;10.102;2023-03-01T12:11:23;6.70;60.00
62259;DHT22;48241;48.824;10.102;2023-03-01T12:14:03;6.70;59.80
62259;DHT22;48241;48.824;10.102;2023-03-01T12:25:25;6.70;61.10
62259;DHT22;48241;48.824;10.102;2023-03-01T12:30:54;7.00;60.70
62259;DHT22;48241;48.824;10.102;2023-03-01T12:39:09;7.10;60.80
62259;DHT22;48241;48.824;10.102;2023-03-01T12:47:03;7.40;60.10
62259;DHT22;48241;48.824;10.102;2023-03-01T12:49:36;7.10;60.90
62259;DHT22;48241;48.824;10.102;2023-03-01T12:54:37;7.00;61.30
62259;DHT22;48241;48.824;10.102;2023-03-01T13:02:59;7.10;60.90
62259;DHT22;48241;48.824;10.102;2023-03-01T13:11:03;6.90;61.50
62259;DHT22;48241;48.824;10.102;2023-03-01T13:13:30;6.80;61.60
62259;DHT22;48241;48.824;10.102;2023-03-01T13:15:57;7.00;61.10
62259;DHT22;48241;48.824;10.102;2023-03-01T13:20:51;7.30;60.50
62259;DHT22;48241;48.824;10.102;2023-03-01T13:26:17;7.10;60.90
62259;DHT22;48241;48.824;10.102;2023-03-01T13:28:56;7.10;61.00
62259;DHT22;48241;48.824;10.102;2023-03-01T13:34:00;7.50;59.90
62259;DHT22;48241;48.824;10.102;2023-03-01T13:38:58;7.60;59.30
62259;DHT22;48241;48.824;10.102;2023-03-01T13:49:47;7.40;59.80
62259;DHT22;48241;48.824;10.102;2023-03-01T13:54:47;7.10;60.70
62259;DHT22;48241;48.824;10.102;2023-03-01T13:57:21;7.10;60.80
62259;DHT22;48241;48.824;10.102;2023-03-01T13:59:48;7.20;60.30
62259;DHT22;48241;48.824;10.102;2023-03-01T14:02:15;7.30;60.10
62259;DHT22;48241;48.824;10.102;2023-03-01T14:04:41;7.50;59.70
62259;DHT22;48241;48.824;10.102;2023-03-01T14:07:21;7.30;59.80
62259;DHT22;48241;48.824;10.102;2023-03-01T14:09:52;7.40;59.70
62259;DHT22;48241;48.824;10.102;2023-03-01T14:15:16;7.40;59.20
62259;DHT22;48241;48.824;10.102;2023-03-01T14:20:27;7.50;58.70
62259;DHT22;48241;48.824;10.102;2023-03-01T14:22:58;7.50;58.80
62259;DHT22;48241;48.824;10.102;2023-03-01T14:25:32;7.40;59.00
62259;DHT22;48241;48.824;10.102;2023-03-01T14:28:15;7.50;58.80
62259;DHT22;48241;48.824;10.102;2023-03-01T14:30:47;7.30;59.50
62259;DHT22;48241;48.824;10.102;2023-03-01T14:33:34;7.30;59.30
62259;DHT22;48241;48.824;10.102;2023-03-01T14:36:03;7.30;59.00
62259;DHT22;48241;48.824;10.102;2023-03-01T14:41:20;7.00;60.40
62259;DHT22;48241;48.824;10.102;2023-03-01T14:43:53;7.10;60.00
62259;DHT22;48241;48.824;10.102;2023-03-01T14:46:24;7.50;59.10
62259;DHT22;48241;48.824;10.102;2023-03-01T14:48:57;7.60;58.90
62259;DHT22;48241;48.824;10.102;2023-03-01T14:51:24;7.70;58.90
62259;DHT22;48241;48.824;10.102;2023-03-01T14:53:50;7.60;58.80
62259;DHT22;48241;48.824;10.102;2023-03-01T14:56:17;7.50;59.00
62259;DHT22;48241;48.824;10.102;2023-03-01T14:58:44;7.60;59.00
62259;DHT22;48241;48.824;10.102;2023-03-01T15:01:14;7.60;58.70
62259;DHT22;48241;48.824;10.102;2023-03-01T15:03:43;7.50;58.80
62259;DHT22;48241;48.824;10.102;2023-03-01T15:06:11;7.50;59.30
62259;DHT22;48241;48.824;10.102;2023-03-01T15:08:43;7.70;58.90
62259;DHT22;48241;48.824;10.102;2023-03-01T15:13:39;8.00;58.00
62259;DHT22;48241;48.824;10.102;2023-03-01T15:16:13;8.00;57.80
62259;DHT22;48241;48.824;10.102;2023-03-01T15:18:51;7.90;58.60
62259;DHT22;48241;48.824;10.102;2023-03-01T15:21:25;8.00;58.00
62259;DHT22;48241;48.824;10.102;2023-03-01T15:27:12;8.00;58.00
62259;DHT22;48241;48.824;10.102;2023-03-01T15:29:39;8.10;57.70
62259;DHT22;48241;48.824;10.102;2023-03-01T15:34:50;8.10;57.80
62259;DHT22;48241;48.824;10.102;2023-03-01T15:37:39;7.90;58.20
62259;DHT22;48241;48.824;10.102;2023-03-01T15:42:46;7.90;58.20
62259;DHT22;48241;48.824;10.102;2023-03-01T15:47:47;7.80;58.70
62259;DHT22;48241;48.824;10.102;2023-03-01T15:50:22;7.70;58.50
62259;DHT22;48241;48.824;10.102;2023-03-01T15:52:49;7.60;58.70
62259;DHT22;48241;48.824;10.102;2023-03-01T15:55:24;7.70;58.60
62259;DHT22;48241;48.824;10.102;2023-03-01T15:58:12;7.90;58.20
62259;DHT22;48241;48.824;10.102;2023-03-01T16:00:38;7.90;57.80
62259;DHT22;48241;48.824;10.102;2023-03-01T16:03:05;8.00;58.00
62259;DHT22;48241;48.824;10.102;2023-03-01T16:05:33;7.90;57.60
62259;DHT22;48241;48.824;10.102;2023-03-01T16:08:00;8.00;57.80
62259;DHT22;48241;48.824;10.102;2023-03-01T16:10:26;8.00;57.80
62259;DHT22;48241;48.824;10.102;2023-03-01T16:12:52;8.00;57.60
62259;DHT22;48241;48.824;10.102;2023-03-01T16:15:27;7.90;57.80
62259;DHT22;48241;48.824;10.102;2023-03-01T16:17:53;8.00;58.00
62259;DHT22;48241;48.824;10.102;2023-03-01T16:20:19;7.70;57.80
62259;DHT22;48241;48.824;10.102;2023-03-01T16:22:46;7.50;58.60
62259;DHT22;48241;48.824;10.102;2023-03-01T16:25:16;7.20;60.00
62259;DHT22;48241;48.824;10.102;2023-03-01T16:27:43;7.10;60.30
62259;DHT22;48241;48.824;10.102;2023-03-01T16:30:10;7.20;59.60
62259;DHT22;48241;48.824;10.102;2023-03-01T16:32:44;7.30;59.20
62259;DHT22;48241;48.824;10.102;2023-03-01T16:35:11;7.30;59.30
62259;DHT22;48241;48.824;10.102;2023-03-01T16:37:37;7.40;59.10
62259;DHT22;48241;48.824;10.102;2023-03-01T16:40:05;7.60;58.60
62259;DHT22;48241;48.824;10.102;2023-03-01T16:42:35;7.40;58.80
62259;DHT22;48241;48.824;10.102;2023-03-01T16:45:02;7.30;59.60
62259;DHT22;48241;48.824;10.102;2023-03-01T16:47:28;7.40;60.70
62259;DHT22;48241;48.824;10.102;2023-03-01T16:49:54;7.10;60.20
62259;DHT22;48241;48.824;10.102;2023-03-01T16:52:21;6.90;60.80
62259;DHT22;48241;48.824;10.102;2023-03-01T16:54:47;7.00;60.70
62259;DHT22;48241;48.824;10.102;2023-03-01T16:57:13;7.00;61.10
62259;DHT22;48241;48.824;10.102;2023-03-01T16:59:39;7.00;62.00
62259;DHT22;48241;48.824;10.102;2023-03-01T17:02:10;6.60;62.20
62259;DHT22;48241;48.824;10.102;2023-03-01T17:04:38;6.60;62.60
62259;DHT22;48241;48.824;10.102;2023-03-01T17:07:04;6.50;64.00
62259;DHT22;48241;48.824;10.102;2023-03-01T17:09:37;6.50;63.90
62259;DHT22;48241;48.824;10.102;2023-03-01T17:12:04;6.30;64.10
62259;DHT22;48241;48.824;10.102;2023-03-01T17:14:30;6.00;64.80
62259;DHT22;48241;48.824;10.102;2023-03-01T17:16:55;6.10;64.80
62259;DHT22;48241;48.824;10.102;2023-03-01T17:19:21;6.10;65.30
62259;DHT22;48241;48.824;10.102;2023-03-01T17:21:46;6.10;65.60
62259;DHT22;48241;48.824;10.102;2023-03-01T17:24:12;5.80;67.20
62259;DHT22;48241;48.824;10.102;2023-03-01T17:26:38;5.80;66.60
62259;DHT22;48241;48.824;10.102;2023-03-01T17:29:05;5.60;68.60
62259;DHT22;48241;48.824;10.102;2023-03-01T17:31:32;5.50;69.10
62259;DHT22;48241;48.824;10.102;2023-03-01T17:33:58;5.40;68.60
62259;DHT22;48241;48.824;10.102;2023-03-01T17:36:24;5.20;69.80
62259;DHT22;48241;48.824;10.102;2023-03-01T17:38:50;5.40;69.90
62259;DHT22;48241;48.824;10.102;2023-03-01T17:41:17;5.10;71.20
62259;DHT22;48241;48.824;10.102;2023-03-01T17:43:44;5.20;70.80
62259;DHT22;48241;48.824;10.102;2023-03-01T17:46:10;5.40;70.10